Time;durP1;ratioP1;P1;durP2;ratioP2;P2;SDS_P1;SDS_P2;PMS_P1;PMS_P2;Temp;Humidity;BMP_temperature;BMP_pressure;BME280_temperature;BME280_humidity;BME280_pressure;Samples;Min_cycle;Max_cycle;Signal;HPM_P1;HPM_P2
2022/10/23 00:02:17;;;;;;;17.92;8.63;;;;;;;12.02;100.00;101300.25;5266963;28;20140;-86
2022/10/23 00:05:12;;;;;;;13.23;7.65;;;;;;;11.97;100.00;101297.13;5264573;28;20049;-86
2022/10/23 00:07:43;;;;;;;18.55;8.70;;;;;;;11.99;100.00;101299.69;5259069;28;20037;-85
2022/10/23 00:10:32;;;;;;;15.27;7.82;;;;;;;12.20;100.00;101324.47;5265479;28;20029;-86
2022/10/23 00:13:07;;;;;;;15.85;8.27;;;;;;;11.93;100.00;101282.38;5263279;28;20029;-85
2022/10/23 00:15:42;;;;;;;13.70;7.97;;;;;;;12.06;100.00;101307.00;5265439;28;20037;-86
2022/10/23 00:18:50;;;;;;;14.20;7.68;;;;;;;12.17;100.00;101316.72;5267341;28;20461;-86
2022/10/23 00:22:00;;;;;;;19.27;8.23;;;;;;;12.17;100.00;101319.38;5262932;28;20068;-86
2022/10/23 00:24:47;;;;;;;;;;;;;;;;;;;;;
2022/10/23 00:27:19;;;;;;;12.23;7.40;;;;;;;12.10;100.00;101318.28;5262632;28;39933;-87
2022/10/23 00:30:28;;;;;;;14.48;8.25;;;;;;;11.91;100.00;101290.53;5266064;28;20116;-86
2022/10/23 00:33:37;;;;;;;14.13;7.20;;;;;;;11.89;100.00;101296.97;5264532;28;20033;-85
2022/10/23 00:36:18;;;;;;;17.83;7.97;;;;;;;12.02;100.00;101307.41;5263548;28;20116;-86
2022/10/23 00:39:19;;;;;;;15.75;8.27;;;;;;;12.05;100.00;101312.50;5278554;28;20520;-86
2022/10/23 00:41:50;;;;;;;17.45;8.52;;;;;;;11.86;100.00;101289.25;5262037;28;20038;-85
2022/10/23 00:44:28;;;;;;;16.95;8.88;;;;;;;12.08;100.00;101312.22;5277036;28;20030;-85
2022/10/23 00:47:22;;;;;;;20.92;9.35;;;;;;;11.99;100.00;101299.69;5281185;28;20030;-86
2022/10/23 00:50:27;;;;;;;14.52;8.15;;;;;;;11.91;100.00;101273.66;5262401;28;20038;-85
2022/10/23 00:53:14;;;;;;;14.98;8.52;;;;;;;11.81;100.00;101281.63;5263858;28;20058;-85
2022/10/23 00:59:07;;;;;;;18.38;9.07;;;;;;;11.84;100.00;101270.66;5254243;28;20152;-85
2022/10/23 01:01:39;;;;;;;14.50;8.00;;;;;;;11.94;100.00;101297.44;5281198;28;20021;-84
2022/10/23 01:04:10;;;;;;;17.83;8.02;;;;;;;11.96;100.00;101297.31;5267464;28;20037;-84
2022/10/23 01:06:48;;;;;;;14.60;8.52;;;;;;;12.03;100.00;101304.63;5272158;28;20486;-83
2022/10/23 01:09:36;;;;;;;18.05;8.63;;;;;;;12.07;100.00;101303.34;5265689;28;20042;-85
2022/10/23 01:12:43;;;;;;;16.13;8.00;;;;;;;12.05;100.00;101307.97;5267597;28;20044;-84
2022/10/23 01:15:17;;;;;;;16.77;7.97;;;;;;;11.97;100.00;101291.78;5269045;28;20034;-85
2022/10/23 01:18:20;;;;;;;18.10;8.50;;;;;;;12.04;100.00;101294.75;5267154;28;20549;-84
2022/10/23 01:21:07;;;;;;;17.23;8.13;;;;;;;11.99;100.00;101294.31;5265588;28;20038;-84
2022/10/23 01:24:02;;;;;;;15.32;8.55;;;;;;;11.96;100.00;101295.47;5267903;28;20034;-83
2022/10/23 01:26:45;;;;;;;14.60;7.65;;;;;;;11.91;100.00;101292.38;5266580;28;20034;-86
2022/10/23 01:29:28;;;;;;;14.02;7.72;;;;;;;11.84;100.00;101294.72;5266549;28;20109;-85
2022/10/23 01:32:08;;;;;;;14.85;7.65;;;;;;;11.85;100.00;101280.38;5266882;28;20037;-85
2022/10/23 01:34:59;;;;;;;15.55;7.35;;;;;;;11.93;100.00;101278.88;5269154;28;20026;-85
2022/10/23 01:37:55;;;;;;;13.93;7.60;;;;;;;11.82;100.00;101267.28;5263582;28;20512;-84
2022/10/23 01:40:33;;;;;;;12.30;7.53;;;;;;;11.85;100.00;101276.84;5266393;28;20488;-84
2022/10/23 01:43:11;;;;;;;16.00;6.90;;;;;;;11.83;100.00;101273.47;5260715;28;20104;-85
2022/10/23 01:45:49;;;;;;;15.82;7.07;;;;;;;11.81;100.00;101264.75;5259684;28;20386;-85
2022/10/23 01:48:26;;;;;;;15.68;7.13;;;;;;;11.82;100.00;101263.78;5259098;28;20072;-85
2022/10/23 01:51:00;;;;;;;14.32;7.05;;;;;;;11.83;100.00;101260.09;5258173;28;20115;-85
2022/10/23 01:53:37;;;;;;;11.65;7.32;;;;;;;11.77;100.00;101253.50;5263881;28;20030;-85
2022/10/23 01:56:11;;;;;;;15.70;7.57;;;;;;;11.80;100.00;101257.72;5269716;28;20071;-85
2022/10/23 01:58:47;;;;;;;13.48;7.40;;;;;;;11.83;100.00;101250.28;5264377;28;20373;-84
2022/10/23 02:01:22;;;;;;;12.97;7.23;;;;;;;11.81;100.00;101257.56;5268313;28;20033;-85
2022/10/23 02:03:56;;;;;;;13.20;7.40;;;;;;;11.78;100.00;101254.34;5266177;28;20322;-84
2022/10/23 02:06:27;;;;;;;15.57;7.57;;;;;;;11.81;100.00;101256.75;5264523;28;20572;-85
2022/10/23 02:08:59;;;;;;;12.70;7.93;;;;;;;11.72;100.00;101248.56;5264651;28;20043;-85
2022/10/23 02:11:36;;;;;;;15.90;8.27;;;;;;;11.78;100.00;101254.34;5264411;28;20038;-85
2022/10/23 02:14:17;;;;;;;14.82;7.60;;;;;;;11.78;100.00;101255.22;5268165;28;20038;-84
2022/10/23 02:16:53;;;;;;;16.73;9.18;;;;;;;11.77;100.00;101252.66;5263569;28;20380;-85
2022/10/23 02:19:30;;;;;;;14.75;7.70;;;;;;;11.77;100.00;101240.13;5269101;28;20031;-86
2022/10/23 02:22:14;;;;;;;16.13;8.20;;;;;;;11.82;100.00;101247.75;5266000;28;20060;-84
2022/10/23 02:24:51;;;;;;;14.40;7.93;;;;;;;11.97;100.00;101253.53;5267740;28;20038;-84
2022/10/23 02:27:32;;;;;;;15.43;8.40;;;;;;;11.84;100.00;101240.44;5263905;28;20018;-85
2022/10/23 02:30:09;;;;;;;14.07;8.13;;;;;;;11.83;100.00;101231.56;5264798;28;20083;-85
2022/10/23 02:32:47;;;;;;;13.07;7.68;;;;;;;11.93;100.00;101239.59;5268934;28;20028;-85
2022/10/23 02:35:21;;;;;;;12.77;8.05;;;;;;;11.88;100.00;101237.31;5283419;28;20558;-85
2022/10/23 02:37:54;;;;;;;11.43;7.88;;;;;;;11.85;100.00;101228.72;5269872;28;20100;-85
2022/10/23 02:40:36;;;;;;;20.10;8.07;;;;;;;11.88;100.00;101221.28;5269940;28;20025;-84
2022/10/23 02:43:23;;;;;;;13.00;7.90;;;;;;;11.93;100.00;101210.19;5270792;28;20025;-84
2022/10/23 02:46:02;;;;;;;12.23;7.78;;;;;;;11.93;100.00;101202.19;5270151;28;20021;-85
2022/10/23 02:48:44;;;;;;;14.63;7.93;;;;;;;11.80;100.00;101174.84;5295227;28;20569;-85
2022/10/23 02:51:24;;;;;;;16.55;7.90;;;;;;;11.88;100.00;101170.50;5283112;28;20687;-84
2022/10/23 02:54:03;;;;;;;15.40;7.70;;;;;;;11.93;100.00;101175.44;5284072;28;20478;-85
2022/10/23 02:56:46;;;;;;;16.10;8.38;;;;;;;11.95;100.00;101168.13;5280291;28;20052;-84
2022/10/23 02:59:36;;;;;;;16.23;8.30;;;;;;;11.97;100.00;101166.16;5272912;28;20128;-85
2022/10/23 03:02:13;;;;;;;15.77;8.20;;;;;;;11.97;100.00;101155.44;5280397;28;20024;-85
2022/10/23 03:04:46;;;;;;;14.82;8.02;;;;;;;11.90;100.00;101155.22;5284054;28;20038;-85
2022/10/23 03:07:18;;;;;;;17.20;8.55;;;;;;;11.99;100.00;101156.19;5294724;28;20014;-85
2022/10/23 03:09:50;;;;;;;12.70;7.72;;;;;;;11.94;100.00;101147.75;5301813;28;20048;-85
2022/10/23 03:12:21;;;;;;;11.60;8.13;;;;;;;11.91;100.00;101148.84;5277145;28;20030;-84
2022/10/23 03:14:52;;;;;;;12.70;8.18;;;;;;;11.95;100.00;101151.25;5277196;28;20026;-84
2022/10/23 03:17:24;;;;;;;12.93;8.07;;;;;;;11.98;100.00;101145.63;5268991;28;20025;-86
2022/10/23 03:19:55;;;;;;;13.73;8.77;;;;;;;11.93;100.00;101138.03;5264538;28;20136;-84
2022/10/23 03:22:30;;;;;;;14.05;8.68;;;;;;;11.94;100.00;101137.06;5266257;28;20105;-85
2022/10/23 03:25:02;;;;;;;16.85;7.25;;;;;;;11.95;100.00;101146.75;5266760;28;20075;-85
2022/10/23 03:27:33;;;;;;;12.05;8.98;;;;;;;11.96;100.00;101142.25;5265719;28;20025;-86
2022/10/23 03:30:06;;;;;;;10.68;7.80;;;;;;;11.97;100.00;101136.75;5276051;28;20091;-85
2022/10/23 03:32:37;;;;;;;12.05;8.50;;;;;;;12.00;100.00;101135.63;5258706;28;20390;-85
2022/10/23 03:35:08;;;;;;;15.75;8.95;;;;;;;12.01;100.00;101135.47;5263057;28;20030;-85
2022/10/23 03:37:39;;;;;;;11.55;7.60;;;;;;;12.03;100.00;101128.16;5266898;28;20032;-85
2022/10/23 03:40:11;;;;;;;16.40;8.20;;;;;;;12.05;100.00;101122.66;5267833;28;20033;-84
2022/10/23 03:42:42;;;;;;;15.32;8.40;;;;;;;12.07;100.00;101126.88;5267762;28;20030;-86
2022/10/23 03:45:13;;;;;;;11.75;8.25;;;;;;;12.10;100.00;101112.38;5265848;28;20029;-85
2022/10/23 03:47:45;;;;;;;13.15;8.00;;;;;;;12.12;100.00;101109.56;5264248;28;20108;-85
2022/10/23 03:50:18;;;;;;;19.65;8.38;;;;;;;12.14;100.00;101115.59;5262922;28;20044;-85
2022/10/23 03:52:49;;;;;;;15.30;8.73;;;;;;;12.14;100.00;101111.09;5261471;28;20618;-85
2022/10/23 03:55:20;;;;;;;14.27;8.50;;;;;;;12.15;100.00;101109.25;5260558;28;20211;-86
2022/10/23 03:57:53;;;;;;;11.52;7.57;;;;;;;12.20;100.00;101113.19;5269166;28;20032;-85
2022/10/23 04:00:24;;;;;;;16.55;8.68;;;;;;;12.12;100.00;101102.38;5265378;28;20114;-85
2022/10/23 04:02:56;;;;;;;14.55;8.57;;;;;;;12.06;100.00;101092.25;5291731;28;20516;-86
2022/10/23 04:05:27;;;;;;;13.90;8.38;;;;;;;12.19;100.00;101097.28;5262216;28;20103;-86
2022/10/23 04:07:58;;;;;;;15.77;8.27;;;;;;;12.14;100.00;101079.00;5268499;28;20032;-85
2022/10/23 04:10:29;;;;;;;13.60;8.80;;;;;;;12.12;100.00;101075.63;5267897;28;20044;-84
2022/10/23 04:13:01;;;;;;;12.45;7.85;;;;;;;12.12;100.00;101072.13;5267534;28;20121;-85
2022/10/23 04:15:32;;;;;;;15.48;8.68;;;;;;;12.07;100.00;101065.38;5270408;28;20033;-85
2022/10/23 04:18:03;;;;;;;16.30;7.82;;;;;;;12.12;100.00;101072.97;5273270;28;20029;-85
2022/10/23 04:20:35;;;;;;;13.27;8.43;;;;;;;12.09;100.00;101074.09;5298824;28;20037;-86
2022/10/23 04:23:06;;;;;;;13.10;8.52;;;;;;;12.11;100.00;101079.28;5263762;28;20029;-85
2022/10/23 04:25:37;;;;;;;11.80;8.25;;;;;;;12.13;100.00;101092.50;5261744;28;20108;-85
2022/10/23 04:28:09;;;;;;;20.58;8.60;;;;;;;12.14;100.00;101089.69;5272585;28;20028;-85
2022/10/23 04:30:40;;;;;;;14.50;7.70;;;;;;;12.13;100.00;101088.00;5294237;28;20131;-85
2022/10/23 04:33:11;;;;;;;13.15;7.97;;;;;;;12.14;100.00;101083.53;5265655;28;20028;-85
2022/10/23 04:35:43;;;;;;;12.90;7.70;;;;;;;12.06;100.00;101077.06;5273783;28;20029;-85
2022/10/23 04:38:14;;;;;;;14.27;8.27;;;;;;;12.14;100.00;101086.19;5263191;28;20030;-85
2022/10/23 04:40:46;;;;;;;15.65;8.18;;;;;;;12.09;100.00;101076.75;5264365;28;20203;-85
2022/10/23 04:43:17;;;;;;;13.15;8.07;;;;;;;12.05;100.00;101070.03;5272763;28;20036;-85
2022/10/23 04:45:49;;;;;;;13.38;7.97;;;;;;;12.06;100.00;101065.50;5270894;28;20120;-86
2022/10/23 04:48:21;;;;;;;13.38;7.72;;;;;;;12.11;100.00;101073.94;5259019;28;20433;-86
2022/10/23 04:51:02;;;;;;;11.65;8.07;;;;;;;12.16;100.00;101076.19;5265553;28;20088;-85
2022/10/23 04:53:33;;;;;;;13.32;8.10;;;;;;;12.11;100.00;101065.91;5267163;28;20024;-86
2022/10/23 04:56:05;;;;;;;11.50;7.80;;;;;;;12.10;100.00;101069.59;5261031;28;20021;-85
2022/10/23 04:58:37;;;;;;;13.05;8.02;;;;;;;12.07;100.00;101056.53;5265669;28;20025;-85
2022/10/23 05:01:09;;;;;;;12.27;7.38;;;;;;;12.11;100.00;101055.22;5264226;28;20049;-85
2022/10/23 05:03:40;;;;;;;15.73;7.68;;;;;;;12.05;100.00;101050.47;5262959;28;20128;-86
2022/10/23 05:06:12;;;;;;;14.02;8.13;;;;;;;12.09;100.00;101062.56;5260092;28;20025;-85
2022/10/23 05:08:43;;;;;;;13.75;8.02;;;;;;;12.14;100.00;101056.78;5266621;28;20084;-85
2022/10/23 05:11:14;;;;;;;11.82;7.63;;;;;;;12.12;100.00;101056.91;5263409;28;20025;-85
2022/10/23 05:13:45;;;;;;;12.07;7.90;;;;;;;12.14;100.00;101060.28;5258559;28;20111;-85
2022/10/23 05:16:45;;;;;;;11.68;7.18;;;;;;;12.17;100.00;101053.81;5263133;28;20049;-85
2022/10/23 05:19:23;;;;;;;14.85;7.55;;;;;;;12.20;100.00;101051.69;5258091;28;20033;-85
2022/10/23 05:21:56;;;;;;;13.80;7.63;;;;;;;12.13;100.00;101039.03;5258014;28;20029;-85
2022/10/23 05:24:27;;;;;;;12.85;7.30;;;;;;;12.20;100.00;101038.31;5256338;28;20029;-85
2022/10/23 05:26:58;;;;;;;12.82;7.68;;;;;;;12.24;100.00;101050.38;5254900;28;20971;-85
2022/10/23 05:29:29;;;;;;;15.93;6.97;;;;;;;12.23;100.00;101042.50;5251481;28;20493;-85
2022/10/23 05:32:04;;;;;;;14.63;7.35;;;;;;;12.22;100.00;101039.00;5261968;28;20025;-85
2022/10/23 05:34:37;;;;;;;16.15;7.85;;;;;;;12.25;100.00;101043.19;5260421;28;20036;-85
2022/10/23 05:37:10;;;;;;;16.52;7.32;;;;;;;12.23;100.00;101039.84;5262913;28;20674;-85
2022/10/23 05:39:42;;;;;;;12.00;6.22;;;;;;;12.21;100.00;101034.63;5252931;28;20030;-85
2022/10/23 05:42:13;;;;;;;12.65;7.00;;;;;;;12.27;100.00;101033.19;5248437;28;20030;-85
2022/10/23 05:44:45;;;;;;;11.00;6.88;;;;;;;12.23;100.00;101031.81;5261689;28;20593;-85
2022/10/23 05:47:16;;;;;;;15.20;7.13;;;;;;;12.27;100.00;101030.50;5257480;28;20041;-85
2022/10/23 05:49:47;;;;;;;11.95;7.30;;;;;;;12.23;100.00;101023.78;5256130;28;20089;-86
2022/10/23 05:52:19;;;;;;;14.30;7.13;;;;;;;12.24;100.00;101026.31;5255007;28;20033;-85
2022/10/23 05:54:50;;;;;;;13.98;6.25;;;;;;;12.23;100.00;101019.28;5259754;28;20096;-85
2022/10/23 05:57:21;;;;;;;14.15;6.80;;;;;;;12.28;100.00;101018.84;5259443;28;20079;-85
2022/10/23 05:59:53;;;;;;;12.57;6.35;;;;;;;12.24;100.00;101018.31;5259101;28;20017;-85
2022/10/23 06:02:24;;;;;;;16.65;6.70;;;;;;;12.26;100.00;101012.81;5255269;28;20030;-85
2022/10/23 06:04:55;;;;;;;12.52;6.60;;;;;;;12.28;100.00;101022.34;5258197;28;20052;-85
2022/10/23 06:07:28;;;;;;;9.07;6.82;;;;;;;12.32;100.00;101008.69;5253527;28;20075;-85
2022/10/23 06:10:00;;;;;;;12.32;6.45;;;;;;;12.33;100.00;101013.88;5267964;28;20037;-85
2022/10/23 06:12:32;;;;;;;13.43;6.60;;;;;;;12.33;100.00;101003.19;5261038;28;20041;-85
2022/10/23 06:15:04;;;;;;;13.35;6.38;;;;;;;12.37;100.00;101006.41;5297773;28;20385;-85
2022/10/23 06:17:35;;;;;;;8.43;6.40;;;;;;;12.36;100.00;101005.56;5262458;28;20068;-85
2022/10/23 06:20:07;;;;;;;11.07;6.45;;;;;;;12.41;100.00;101005.97;5261386;28;20018;-85
2022/10/23 06:22:39;;;;;;;12.10;6.55;;;;;;;12.44;100.00;100994.94;5266051;28;20034;-85
2022/10/23 06:25:10;;;;;;;11.63;6.40;;;;;;;12.49;100.00;100999.84;5263197;28;20026;-86
2022/10/23 06:27:41;;;;;;;10.10;5.53;;;;;;;12.52;100.00;101004.91;5261157;28;20076;-86
2022/10/23 06:30:13;;;;;;;9.73;6.25;;;;;;;12.56;100.00;100995.56;5256176;28;20445;-85
2022/10/23 06:32:44;;;;;;;11.38;5.97;;;;;;;12.56;100.00;100987.53;5260368;28;20069;-85
2022/10/23 06:35:16;;;;;;;11.70;5.82;;;;;;;12.60;100.00;100985.41;5261097;28;20038;-85
2022/10/23 06:37:47;;;;;;;13.35;6.63;;;;;;;12.51;100.00;100963.06;5262913;28;20530;-85
2022/10/23 06:40:19;;;;;;;11.00;5.60;;;;;;;12.62;100.00;100968.22;5260115;28;20029;-85
2022/10/23 06:42:50;;;;;;;10.30;5.38;;;;;;;12.69;100.00;100965.75;5275584;28;20497;-86
2022/10/23 06:45:22;;;;;;;10.68;5.78;;;;;;;12.69;100.00;100963.06;5255566;28;20440;-85
2022/10/23 06:47:53;;;;;;;8.60;5.68;;;;;;;12.55;100.00;100928.81;5259131;28;20107;-86
2022/10/23 06:50:25;;;;;;;8.48;5.53;;;;;;;12.81;100.00;100969.03;5260396;28;20033;-85
2022/10/23 06:52:56;;;;;;;11.50;5.65;;;;;;;12.76;100.00;100948.09;5261045;28;20061;-85
2022/10/23 06:55:28;;;;;;;12.05;5.10;;;;;;;12.91;100.00;100969.81;5259445;28;20113;-85
2022/10/23 06:58:00;;;;;;;6.82;4.95;;;;;;;12.92;100.00;100965.28;5274093;28;20474;-86
2022/10/23 07:00:34;;;;;;;8.43;5.13;;;;;;;12.94;100.00;100968.63;5257942;28;20034;-85
2022/10/23 07:03:07;;;;;;;11.75;4.80;;;;;;;12.97;100.00;100960.31;5256630;28;20033;-85
2022/10/23 07:05:39;;;;;;;9.85;4.95;;;;;;;13.06;100.00;100970.09;5251944;28;20037;-85
2022/10/23 07:08:11;;;;;;;6.00;4.82;;;;;;;13.08;100.00;100976.13;5259440;28;20029;-85
2022/10/23 07:10:42;;;;;;;10.25;5.07;;;;;;;13.10;100.00;100957.25;5274679;28;20026;-86
2022/10/23 07:13:14;;;;;;;9.07;4.60;;;;;;;13.12;100.00;100958.75;5261721;28;20064;-86
2022/10/23 07:15:45;;;;;;;10.75;5.03;;;;;;;13.18;100.00;100963.50;5259576;28;20090;-86
2022/10/23 07:18:18;;;;;;;9.77;4.88;;;;;;;13.18;100.00;100958.16;5254253;28;20425;-85
2022/10/23 07:20:57;;;;;;;9.30;4.75;;;;;;;13.35;100.00;100963.63;5264330;28;20182;-85
2022/10/23 07:23:28;;;;;;;8.55;4.50;;;;;;;13.33;100.00;100960.28;5269028;28;20045;-85
2022/10/23 07:26:09;;;;;;;9.05;4.30;;;;;;;13.38;100.00;100941.88;5263409;28;20407;-85
2022/10/23 07:28:41;;;;;;;5.10;3.83;;;;;;;13.40;100.00;100934.53;5259628;28;20042;-85
2022/10/23 07:31:13;;;;;;;10.00;4.25;;;;;;;13.55;100.00;100940.97;5276703;28;20049;-84
2022/10/23 07:33:44;;;;;;;6.60;3.65;;;;;;;13.55;100.00;100937.44;5257909;28;20105;-85
2022/10/23 07:36:17;;;;;;;7.88;4.03;;;;;;;13.63;100.00;100936.66;5262795;28;20025;-85
2022/10/23 07:38:50;;;;;;;7.05;3.70;;;;;;;13.70;100.00;100943.88;5258827;28;20461;-85
2022/10/23 07:41:21;;;;;;;5.72;3.45;;;;;;;13.75;100.00;100935.38;5256004;28;20032;-85
2022/10/23 07:43:52;;;;;;;9.85;4.00;;;;;;;13.75;100.00;100933.53;5256879;28;20030;-85
2022/10/23 07:46:24;;;;;;;8.88;4.03;;;;;;;13.87;100.00;100935.94;5263389;28;20501;-86
2022/10/23 07:48:55;;;;;;;7.13;3.42;;;;;;;13.91;100.00;100939.97;5293002;28;20353;-85
2022/10/23 07:51:26;;;;;;;8.07;3.80;;;;;;;13.92;100.00;100921.03;5261239;28;36519;-86
2022/10/23 07:53:57;;;;;;;4.88;3.15;;;;;;;14.03;100.00;100927.94;5260764;28;20033;-84
2022/10/23 07:56:29;;;;;;;7.82;3.40;;;;;;;14.06;100.00;100926.75;5260123;28;20046;-85
2022/10/23 07:59:00;;;;;;;6.90;3.72;;;;;;;14.14;100.00;100932.97;5277263;28;20041;-85
2022/10/23 08:01:42;;;;;;;9.75;4.00;;;;;;;14.25;100.00;100918.41;5260706;28;20112;-84
2022/10/23 08:04:13;;;;;;;8.20;4.03;;;;;;;14.34;100.00;100928.19;5261005;28;20049;-85
2022/10/23 08:06:44;;;;;;;7.20;3.75;;;;;;;14.40;100.00;100918.63;5262127;28;20029;-85
2022/10/23 08:09:16;;;;;;;7.85;4.20;;;;;;;14.57;100.00;100927.53;5262105;28;20332;-85
2022/10/23 08:11:47;;;;;;;6.03;3.60;;;;;;;14.65;100.00;100913.31;5260824;28;20033;-85
2022/10/23 08:14:19;;;;;;;6.68;4.10;;;;;;;14.72;100.00;100912.47;5294407;28;20366;-85
2022/10/23 08:16:50;;;;;;;8.02;3.53;;;;;;;14.81;100.00;100921.34;5292518;28;20021;-85
2022/10/23 08:19:21;;;;;;;7.70;3.53;;;;;;;14.89;100.00;100925.91;5263452;28;31911;-84
2022/10/23 08:21:54;;;;;;;8.73;3.88;;;;;;;14.93;100.00;100916.50;5276982;28;20434;-85
2022/10/23 08:24:25;;;;;;;9.52;4.43;;;;;;;15.04;100.00;100913.47;5276528;28;20029;-84
2022/10/23 08:26:57;;;;;;;10.63;4.25;;;;;;;15.04;100.00;100909.94;5259203;28;20832;-84
2022/10/23 08:29:28;;;;;;;7.93;3.65;;;;;;;15.06;100.00;100916.81;5259883;28;20375;-84
2022/10/23 08:32:00;;;;;;;8.63;4.13;;;;;;;15.08;100.00;100912.13;5258627;28;20033;-84
2022/10/23 08:34:31;;;;;;;8.68;3.70;;;;;;;15.05;100.00;100906.25;5259076;28;20453;-84
2022/10/23 08:37:02;;;;;;;7.50;4.05;;;;;;;15.02;100.00;100903.88;5262243;28;20389;-85
2022/10/23 08:39:35;;;;;;;8.52;4.07;;;;;;;14.97;100.00;100891.00;5292205;28;20021;-85
2022/10/23 08:42:18;;;;;;;13.18;3.85;;;;;;;15.06;100.00;100889.97;5263769;28;20435;-85
2022/10/23 08:44:57;;;;;;;9.27;3.95;;;;;;;15.03;100.00;100884.91;5275474;28;20025;-85
2022/10/23 08:47:41;;;;;;;9.68;3.95;;;;;;;15.00;100.00;100885.25;5263155;28;20131;-84
2022/10/23 08:50:38;;;;;;;7.80;3.78;;;;;;;15.07;100.00;100890.78;5261971;28;20045;-84
2022/10/23 08:53:26;;;;;;;7.18;4.00;;;;;;;15.12;100.00;100886.56;5260740;28;20060;-85
2022/10/23 08:56:11;;;;;;;6.65;3.78;;;;;;;15.27;100.00;100883.16;5258173;28;20029;-84
2022/10/23 08:58:49;;;;;;;5.38;3.70;;;;;;;15.23;100.00;100879.16;5258859;28;20018;-84
2022/10/23 09:01:27;;;;;;;10.38;3.80;;;;;;;15.25;100.00;100886.06;5257247;28;20025;-84
2022/10/23 09:03:59;;;;;;;8.90;4.00;;;;;;;15.20;100.00;100884.88;5256809;28;20100;-84
2022/10/23 09:06:42;;;;;;;8.60;3.83;;;;;;;15.21;100.00;100871.28;5292205;28;20113;-84
2022/10/23 09:09:39;;;;;;;5.45;3.92;;;;;;;15.32;100.00;100867.38;5259077;28;20030;-84
2022/10/23 09:12:21;;;;;;;7.18;3.67;;;;;;;15.37;100.00;100854.25;5258672;28;20041;-85
2022/10/23 09:15:11;;;;;;;9.40;3.35;;;;;;;15.54;100.00;100851.53;5257209;28;20022;-85
2022/10/23 09:17:43;;;;;;;8.73;4.18;;;;;;;15.55;100.00;100850.50;5259250;28;20116;-85
2022/10/23 09:20:22;;;;;;;5.82;3.47;;;;;;;15.60;100.00;100840.91;5259610;28;20105;-83
2022/10/23 09:22:57;;;;;;;7.45;3.25;;;;;;;15.63;100.00;100848.59;5259460;28;20024;-83
2022/10/23 09:25:33;;;;;;;6.57;3.70;;;;;;;15.62;100.00;100836.19;5262300;28;20363;-83
2022/10/23 09:28:05;;;;;;;9.57;4.13;;;;;;;15.64;100.00;100836.84;5276575;28;20571;-85
2022/10/23 09:30:39;;;;;;;9.32;3.70;;;;;;;15.67;100.00;100833.81;5260207;28;20431;-84
2022/10/23 09:33:24;;;;;;;7.18;3.47;;;;;;;15.65;100.00;100822.38;5263437;28;20053;-85
2022/10/23 09:36:19;;;;;;;8.98;3.88;;;;;;;15.81;100.00;100818.81;5261935;28;20025;-85
2022/10/23 09:38:52;;;;;;;5.28;3.40;;;;;;;15.75;100.00;100814.13;5261425;28;20032;-85
2022/10/23 09:41:36;;;;;;;7.70;3.65;;;;;;;15.84;100.00;100804.16;5262512;28;20032;-84
2022/10/23 09:44:07;;;;;;;7.82;3.97;;;;;;;15.87;100.00;100801.94;5267887;28;20025;-85
2022/10/23 09:46:41;;;;;;;6.68;3.40;;;;;;;15.88;100.00;100806.34;5286680;28;20478;-84
2022/10/23 09:49:19;;;;;;;11.82;3.47;;;;;;;15.93;100.00;100805.78;5269550;28;20025;-83
2022/10/23 09:52:09;;;;;;;12.25;3.70;;;;;;;16.02;100.00;100811.94;5269064;28;20021;-85
2022/10/23 09:54:57;;;;;;;6.22;3.20;;;;;;;16.06;100.00;100803.34;5268466;28;20034;-84
2022/10/23 09:57:42;;;;;;;7.60;3.42;;;;;;;16.17;100.00;100802.06;5268104;28;20037;-84
2022/10/23 10:00:19;;;;;;;9.95;3.72;;;;;;;16.21;100.00;100800.69;5259563;28;20065;-84
2022/10/23 10:02:58;;;;;;;8.40;3.15;;;;;;;16.34;100.00;100793.84;5262277;28;20033;-84
2022/10/23 10:05:33;;;;;;;8.90;3.55;;;;;;;16.29;100.00;100778.28;5265386;28;20062;-85
2022/10/23 10:08:19;;;;;;;5.88;3.40;;;;;;;16.45;100.00;100780.81;5264143;28;20053;-85
2022/10/23 10:11:01;;;;;;;7.47;3.63;;;;;;;16.45;100.00;100777.28;5264922;28;20041;-84
2022/10/23 10:13:32;;;;;;;7.78;3.42;;;;;;;16.41;100.00;100766.06;5261714;28;20466;-84
2022/10/23 10:16:59;;;;;;;7.68;3.15;;;;;;;16.56;100.00;100746.38;5270425;28;20033;-84
2022/10/23 10:19:56;;;;;;;8.13;3.40;;;;;;;16.45;100.00;100751.19;5252062;28;20061;-84
2022/10/23 10:22:38;;;;;;;8.65;3.15;;;;;;;16.43;100.00;100738.97;5260799;28;20494;-84
2022/10/23 10:25:18;;;;;;;7.13;3.13;;;;;;;16.54;100.00;100735.81;5262700;28;20033;-84
2022/10/23 10:28:01;;;;;;;9.95;3.55;;;;;;;16.53;100.00;100731.44;5265116;28;20481;-84
2022/10/23 10:31:08;;;;;;;4.57;3.42;;;;;;;16.71;100.00;100741.03;5254489;28;20474;-84
2022/10/23 10:34:17;;;;;;;6.70;3.65;;;;;;;16.85;100.00;100747.44;5271486;28;20038;-84
2022/10/23 10:36:53;;;;;;;7.53;3.33;;;;;;;16.96;100.00;100750.50;5259512;28;20075;-83
2022/10/23 10:39:44;;;;;;;5.75;3.42;;;;;;;17.16;100.00;100742.72;5254467;28;20041;-83
2022/10/23 10:42:31;;;;;;;7.00;2.80;;;;;;;17.34;100.00;100734.22;5270701;28;20524;-83
2022/10/23 10:45:05;;;;;;;;;;;;;;;17.76;100.00;100731.75;5261370;28;20114;-83
2022/10/23 10:48:02;;;;;;;5.43;3.10;;;;;;;17.85;100.00;100727.06;5276898;28;19916;-83
2022/10/23 10:50:47;;;;;;;10.55;3.47;;;;;;;18.26;100.00;100727.22;5261960;28;20037;-83
2022/10/23 10:53:30;;;;;;;7.05;3.15;;;;;;;18.75;100.00;100708.44;5271986;28;20071;-83
2022/10/23 10:56:04;;;;;;;6.82;3.35;;;;;;;18.96;100.00;100704.84;5282471;28;20030;-84
2022/10/23 10:58:55;;;;;;;8.65;3.25;;;;;;;19.71;100.00;100710.28;5275460;28;20018;-83
2022/10/23 11:01:35;;;;;;;5.38;3.15;;;;;;;20.16;100.00;100696.97;5265384;28;20032;-79
2022/10/23 11:04:44;;;;;;;6.43;2.63;;;;;;;20.65;100.00;100711.09;5273698;28;20073;-82
2022/10/23 11:07:21;;;;;;;6.85;2.70;;;;;;;20.67;100.00;100695.47;5272694;28;20091;-83
2022/10/23 11:09:52;;;;;;;11.88;2.95;;;;;;;20.27;100.00;100699.06;5264600;28;20655;-83
2022/10/23 11:12:26;;;;;;;7.68;3.00;;;;;;;20.02;100.00;100691.59;5281313;28;20500;-82
2022/10/23 11:14:58;;;;;;;10.73;2.97;;;;;;;19.92;100.00;100682.22;5266136;28;20021;-83
2022/10/23 11:17:38;;;;;;;9.55;2.92;;;;;;;20.13;100.00;100686.59;5297173;28;20400;-83
2022/10/23 11:20:40;;;;;;;5.50;2.50;;;;;;;20.34;100.00;100686.34;5264590;28;20025;-83
2022/10/23 11:23:35;;;;;;;4.50;2.63;;;;;;;20.48;100.00;100684.44;5252492;28;20025;-82
2022/10/23 11:26:19;;;;;;;5.10;2.72;;;;;;;20.52;100.00;100669.41;5264112;28;20389;-83
2022/10/23 11:29:21;;;;;;;4.40;2.40;;;;;;;20.62;100.00;100670.88;5263972;28;20039;-83
2022/10/23 11:32:34;;;;;;;4.30;2.33;;;;;;;20.49;100.00;100661.72;5263754;28;20021;-83
2022/10/23 11:35:18;;;;;;;7.63;2.70;;;;;;;20.65;100.00;100659.63;5263989;28;20030;-83
2022/10/23 11:38:06;;;;;;;7.93;2.67;;;;;;;20.84;100.00;100633.50;5279289;28;20431;-83
2022/10/23 11:40:44;;;;;;;5.57;2.05;;;;;;;20.71;100.00;100629.78;5263927;28;20075;-83
2022/10/23 11:43:27;;;;;;;7.80;2.40;;;;;;;21.41;100.00;100639.03;5263454;28;20099;-83
2022/10/23 11:46:11;;;;;;;6.72;2.50;;;;;;;21.98;100.00;100628.16;5263470;28;20021;-84
2022/10/23 11:48:43;;;;;;;6.18;3.00;;;;;;;22.19;100.00;100613.34;5251832;28;20751;-84
2022/10/23 11:51:28;;;;;;;8.50;3.30;;;;;;;22.78;100.00;100613.75;5278283;28;20108;-83
2022/10/23 11:54:15;;;;;;;11.68;2.97;;;;;;;22.48;100.00;100616.41;5268638;28;20049;-83
2022/10/23 11:56:51;;;;;;;;;;;;;;;22.64;100.00;100618.50;5264971;28;20359;-84
2022/10/23 11:59:31;;;;;;;8.63;2.45;;;;;;;21.85;100.00;100618.25;5262998;28;19924;-84
2022/10/23 12:02:26;;;;;;;9.80;2.45;;;;;;;21.65;100.00;100621.97;5260774;28;20017;-83
2022/10/23 12:05:05;;;;;;;6.40;2.92;;;;;;;21.22;100.00;100621.84;5263361;28;20072;-83
2022/10/23 12:07:40;;;;;;;6.32;2.45;;;;;;;20.79;100.00;100607.03;5253683;28;20033;-83